createdAt,value
2022-11-05T00:00:57.782Z,49.80
2022-11-05T00:01:57.849Z,51.20
2022-11-05T00:02:57.761Z,53.70
2022-11-05T00:04:55.923Z,51.30
2022-11-05T00:05:57.539Z,51.30
2022-11-05T00:06:55.896Z,55.60
2022-11-05T00:07:55.898Z,59.10
2022-11-05T00:08:55.861Z,55.70
2022-11-05T00:09:55.850Z,54.30
2022-11-05T00:10:55.839Z,54.80
2022-11-05T00:11:55.830Z,55.00
2022-11-05T00:12:55.861Z,60.70
2022-11-05T00:13:55.802Z,53.90
2022-11-05T00:14:55.783Z,54.70
2022-11-05T00:15:55.782Z,55.40
2022-11-05T00:16:55.763Z,54.10
2022-11-05T00:17:55.763Z,57.20
2022-11-05T00:18:55.738Z,56.10
2022-11-05T00:19:55.721Z,59.80
2022-11-05T00:20:55.712Z,54.50
2022-11-05T00:21:55.692Z,60.80
2022-11-05T00:22:55.681Z,62.80
2022-11-05T00:23:55.682Z,60.70
2022-11-05T00:24:55.652Z,52.10
2022-11-05T00:25:55.633Z,64.70
2022-11-05T00:26:55.630Z,60.60
2022-11-05T00:27:55.611Z,67.30
2022-11-05T00:28:55.620Z,59.70
2022-11-05T00:29:55.590Z,67.80
2022-11-05T00:30:55.580Z,66.90
2022-11-05T00:31:55.560Z,65.10
2022-11-05T00:32:55.569Z,60.50
2022-11-05T00:33:55.533Z,62.10
2022-11-05T00:34:55.532Z,55.40
2022-11-05T00:35:55.504Z,57.00
2022-11-05T00:36:55.505Z,59.40
2022-11-05T00:37:55.493Z,56.10
2022-11-05T00:38:55.473Z,60.10
2022-11-05T00:39:55.465Z,67.90
2022-11-05T00:40:55.443Z,67.60
2022-11-05T00:41:55.424Z,61.00
2022-11-05T00:42:55.445Z,72.00
2022-11-05T00:43:55.398Z,62.90
2022-11-05T00:44:55.394Z,69.50
2022-11-05T00:45:55.374Z,68.10
2022-11-05T00:46:59.764Z,71.90
2022-11-05T00:47:55.344Z,67.10
2022-11-05T00:48:55.355Z,70.20
2022-11-05T00:49:55.324Z,67.90
2022-11-05T00:50:55.314Z,74.80
2022-11-05T00:51:55.294Z,78.40
2022-11-05T00:52:55.305Z,81.00
2022-11-05T00:53:55.273Z,70.80
2022-11-05T00:54:55.255Z,70.70
2022-11-05T00:55:55.251Z,83.80
2022-11-05T00:56:56.080Z,79.20
2022-11-05T00:57:55.234Z,81.00
2022-11-05T00:58:55.212Z,80.80
2022-11-05T00:59:55.185Z,79.80
2022-11-05T01:00:55.175Z,81.10
2022-11-05T01:01:55.250Z,75.80
2022-11-05T01:02:55.220Z,82.00
2022-11-05T01:03:55.136Z,83.30
2022-11-05T01:04:55.129Z,79.50
2022-11-05T01:05:55.105Z,80.30
2022-11-05T01:06:55.109Z,73.70
2022-11-05T01:07:55.097Z,75.70
2022-11-05T01:08:55.076Z,77.00
2022-11-05T01:09:55.055Z,80.60
2022-11-05T01:10:55.054Z,76.10
2022-11-05T01:11:55.026Z,79.50
2022-11-05T01:12:55.037Z,75.20
2022-11-05T01:13:54.996Z,76.20
2022-11-05T01:14:54.996Z,74.20
2022-11-05T01:15:54.979Z,73.50
2022-11-05T01:16:54.967Z,75.30
2022-11-05T01:17:54.966Z,81.90
2022-11-05T01:18:54.936Z,85.20
2022-11-05T01:19:54.916Z,73.70
2022-11-05T01:20:54.917Z,83.00
2022-11-05T01:21:54.899Z,82.90
2022-11-05T01:22:54.906Z,87.40
2022-11-05T01:23:54.866Z,85.30
2022-11-05T01:24:54.869Z,84.10
2022-11-05T01:25:54.847Z,80.80
2022-11-05T01:26:54.838Z,84.00
2022-11-05T01:27:54.827Z,92.20
2022-11-05T01:28:54.875Z,88.10
2022-11-05T01:29:54.798Z,87.70
2022-11-05T01:30:54.777Z,84.00
2022-11-05T01:31:54.786Z,82.60
2022-11-05T01:32:54.769Z,86.60
2022-11-05T01:33:54.737Z,83.60
2022-11-05T01:34:54.729Z,75.10
2022-11-05T01:35:54.707Z,82.00
2022-11-05T01:36:54.697Z,80.80
2022-11-05T01:37:54.708Z,90.10
2022-11-05T01:38:54.678Z,79.80
2022-11-05T01:39:54.658Z,76.60
2022-11-05T01:40:54.649Z,78.80
2022-11-05T01:41:54.628Z,80.10
2022-11-05T01:42:54.636Z,81.80
2022-11-05T01:43:54.639Z,75.50
2022-11-05T01:44:54.598Z,77.90
2022-11-05T01:45:54.578Z,70.70
2022-11-05T01:46:54.580Z,77.30
2022-11-05T01:47:54.568Z,70.70
2022-11-05T01:49:00.047Z,71.60
2022-11-05T01:49:55.527Z,76.20
2022-11-05T01:50:54.521Z,68.70
2022-11-05T01:51:54.499Z,72.60
2022-11-05T01:52:54.508Z,66.00
2022-11-05T01:53:54.478Z,75.50
2022-11-05T01:54:54.469Z,73.30
2022-11-05T01:55:54.449Z,77.50
2022-11-05T01:56:54.439Z,68.30
2022-11-05T01:57:54.438Z,75.70
2022-11-05T01:58:54.417Z,71.70
2022-11-05T01:59:54.399Z,74.20
2022-11-05T02:00:54.397Z,75.60
2022-11-05T02:01:54.476Z,84.40
2022-11-05T02:02:54.493Z,78.30
2022-11-05T02:03:54.340Z,73.50
2022-11-05T02:04:54.348Z,78.90
2022-11-05T02:05:54.325Z,87.50
2022-11-05T02:06:54.309Z,71.70
2022-11-05T02:07:54.311Z,82.70
2022-11-05T02:08:54.279Z,89.20
2022-11-05T02:09:54.268Z,93.60
2022-11-05T02:10:54.261Z,105.60
2022-11-05T02:11:54.241Z,104.30
2022-11-05T02:12:54.245Z,100.80
2022-11-05T02:13:54.210Z,102.90
2022-11-05T02:14:54.200Z,96.70
2022-11-05T02:15:54.182Z,100.60
2022-11-05T02:16:54.178Z,114.60
2022-11-05T02:17:54.172Z,93.80
2022-11-05T02:18:54.151Z,97.70
2022-11-05T02:19:54.131Z,91.60
2022-11-05T02:20:54.133Z,112.70
2022-11-05T02:21:54.100Z,108.50
2022-11-05T02:22:54.171Z,122.90
2022-11-05T02:23:54.088Z,138.70
2022-11-05T02:24:54.071Z,134.30
2022-11-05T02:25:54.063Z,127.20
2022-11-05T02:26:54.043Z,145.80
2022-11-05T02:27:54.043Z,154.30
2022-11-05T02:28:54.023Z,148.40
2022-11-05T02:29:54.003Z,135.40
2022-11-05T02:30:53.994Z,147.30
2022-11-05T02:31:53.972Z,141.10
2022-11-05T02:32:53.997Z,141.70
2022-11-05T02:33:53.942Z,142.10
2022-11-05T02:34:53.932Z,143.50
2022-11-05T02:35:53.922Z,134.60
2022-11-05T02:36:53.913Z,127.10
2022-11-05T02:37:53.912Z,126.90
2022-11-05T02:38:53.883Z,99.60
2022-11-05T02:39:53.863Z,102.10
2022-11-05T02:40:53.861Z,96.50
2022-11-05T02:41:53.842Z,83.70
2022-11-05T02:42:53.854Z,86.80
2022-11-05T02:43:53.813Z,79.20
2022-11-05T02:44:53.810Z,71.10
2022-11-05T02:45:53.792Z,70.90
2022-11-05T02:46:53.783Z,64.10
2022-11-05T02:47:53.782Z,57.60
2022-11-05T02:48:53.755Z,45.20
2022-11-05T02:49:53.732Z,45.90
2022-11-05T02:50:53.726Z,39.30
2022-11-05T02:51:53.713Z,43.50
2022-11-05T02:52:53.713Z,42.90
2022-11-05T02:53:53.693Z,42.70
2022-11-05T02:54:53.675Z,38.90
2022-11-05T02:55:53.654Z,33.50
2022-11-05T02:56:53.651Z,33.40
2022-11-05T02:57:53.721Z,36.10
2022-11-05T02:58:53.624Z,34.70
2022-11-05T02:59:53.604Z,28.90
2022-11-05T03:00:53.597Z,29.70
2022-11-05T03:01:53.692Z,31.90
2022-11-05T03:02:53.646Z,27.70
2022-11-05T03:03:53.554Z,27.30
2022-11-05T03:04:53.545Z,26.80
2022-11-05T03:05:53.525Z,32.40
2022-11-05T03:06:53.514Z,27.80
2022-11-05T03:07:53.508Z,30.50
2022-11-05T03:08:53.484Z,32.00
2022-11-05T03:09:53.486Z,27.20
2022-11-05T03:10:53.464Z,29.90
2022-11-05T03:11:53.470Z,28.00
2022-11-05T03:12:53.435Z,27.30
2022-11-05T03:13:53.415Z,28.80
2022-11-05T03:14:53.415Z,28.40
2022-11-05T03:15:53.404Z,25.30
2022-11-05T03:16:53.406Z,28.90
2022-11-05T03:17:53.385Z,27.50
2022-11-05T03:18:53.355Z,32.10
2022-11-05T03:19:53.336Z,25.80
2022-11-05T03:20:53.335Z,30.00
2022-11-05T03:21:53.314Z,26.60
2022-11-05T03:22:53.326Z,29.20
2022-11-05T03:23:53.287Z,26.90
2022-11-05T03:24:53.277Z,33.80
2022-11-05T03:25:53.258Z,29.40
2022-11-05T03:26:53.248Z,27.60
2022-11-05T03:27:53.247Z,29.80
2022-11-05T03:28:53.225Z,31.00
2022-11-05T03:29:53.210Z,33.90
2022-11-05T03:30:53.198Z,33.60
2022-11-05T03:31:53.176Z,32.20
2022-11-05T03:32:53.187Z,31.90
2022-11-05T03:33:53.156Z,31.00
2022-11-05T03:34:53.249Z,28.80
2022-11-05T03:35:53.128Z,28.00
2022-11-05T03:36:53.129Z,27.90
2022-11-05T03:37:53.129Z,29.40
2022-11-05T03:38:53.088Z,29.00
2022-11-05T03:39:53.077Z,32.00
2022-11-05T03:40:53.068Z,33.20
2022-11-05T03:41:53.074Z,32.10
2022-11-05T03:42:53.036Z,33.10
2022-11-05T03:43:53.018Z,33.80
2022-11-05T03:44:53.010Z,31.60
2022-11-05T03:45:53.000Z,31.80
2022-11-05T03:46:53.007Z,28.50
2022-11-05T03:47:52.970Z,30.80
2022-11-05T03:48:53.067Z,35.30
2022-11-05T03:49:52.937Z,34.80
2022-11-05T03:50:52.928Z,36.60
2022-11-05T03:51:52.939Z,39.10
2022-11-05T03:52:52.908Z,34.90
2022-11-05T03:53:52.888Z,38.30
2022-11-05T03:54:52.878Z,33.80
2022-11-05T03:55:52.865Z,40.40
2022-11-05T03:56:52.873Z,40.70
2022-11-05T03:57:52.843Z,40.50
2022-11-05T03:58:58.474Z,36.80
2022-11-05T03:59:53.811Z,40.40
2022-11-05T04:00:52.798Z,39.40
2022-11-05T04:01:52.945Z,36.00
2022-11-05T04:02:52.929Z,42.80
2022-11-05T04:03:52.758Z,39.00
2022-11-05T04:04:52.757Z,35.50
2022-11-05T04:05:52.737Z,37.20
2022-11-05T04:06:52.738Z,35.00
2022-11-05T04:07:52.705Z,39.40
2022-11-05T04:08:52.696Z,34.50
2022-11-05T04:09:52.681Z,35.00
2022-11-05T04:10:52.669Z,38.00
2022-11-05T04:11:52.668Z,33.90
2022-11-05T04:12:52.639Z,40.40
2022-11-05T04:13:52.629Z,38.60
2022-11-05T04:14:52.620Z,39.80
2022-11-05T04:15:52.602Z,36.80
2022-11-05T04:16:52.609Z,40.40
2022-11-05T04:17:52.588Z,35.10
2022-11-05T04:18:52.560Z,43.90
2022-11-05T04:19:52.549Z,39.60
2022-11-05T04:20:52.539Z,36.70
2022-11-05T04:21:52.540Z,42.40
2022-11-05T04:22:52.510Z,37.40
2022-11-05T04:23:52.489Z,40.90
2022-11-05T04:24:52.480Z,45.00
2022-11-05T04:25:52.469Z,43.30
2022-11-05T04:26:52.473Z,45.40
2022-11-05T04:27:52.440Z,49.10
2022-11-05T04:28:52.431Z,46.80
2022-11-05T04:29:52.411Z,49.10
2022-11-05T04:30:52.400Z,53.00
2022-11-05T04:31:52.411Z,51.30
2022-11-05T04:32:52.371Z,53.60
2022-11-05T04:33:52.370Z,51.40
2022-11-05T04:34:52.350Z,52.40
2022-11-05T04:35:52.339Z,52.20
2022-11-05T04:36:52.338Z,57.90
2022-11-05T04:37:52.311Z,56.20
2022-11-05T04:38:52.291Z,54.10
2022-11-05T04:39:52.291Z,56.00
2022-11-05T04:40:52.275Z,60.30
2022-11-05T04:41:52.271Z,59.00
2022-11-05T04:42:52.243Z,60.80
2022-11-05T04:43:52.231Z,57.30
2022-11-05T04:44:52.213Z,60.40
2022-11-05T04:45:52.201Z,61.60
2022-11-05T04:46:52.205Z,69.10
2022-11-05T04:47:52.191Z,70.40
2022-11-05T04:48:52.161Z,72.90
2022-11-05T04:49:52.158Z,71.20
2022-11-05T04:50:52.141Z,68.30
2022-11-05T04:51:52.141Z,71.60
2022-11-05T04:52:52.111Z,70.90
2022-11-05T04:53:52.102Z,76.40
2022-11-05T04:54:52.083Z,82.30
2022-11-05T04:55:52.073Z,76.20
2022-11-05T04:56:52.091Z,85.50
2022-11-05T04:57:52.050Z,80.90
2022-11-05T04:58:52.033Z,84.30
2022-11-05T04:59:52.032Z,77.40
2022-11-05T05:00:52.105Z,82.10
2022-11-05T05:01:52.080Z,82.10
2022-11-05T05:02:51.980Z,88.40
2022-11-05T05:03:51.981Z,98.60
2022-11-05T05:04:51.952Z,98.30
2022-11-05T05:05:53.798Z,93.70
2022-11-05T05:06:51.942Z,97.10
2022-11-05T05:07:51.932Z,100.70
2022-11-05T05:08:51.902Z,100.90
2022-11-05T05:09:51.891Z,97.60
2022-11-05T05:10:51.875Z,98.40
2022-11-05T05:11:51.874Z,108.00
2022-11-05T05:12:51.854Z,108.40
2022-11-05T05:13:51.833Z,109.10
2022-11-05T05:14:51.815Z,114.00
2022-11-05T05:15:51.813Z,108.60
2022-11-05T05:16:51.804Z,113.60
2022-11-05T05:17:51.785Z,116.30
2022-11-05T05:18:51.767Z,112.30
2022-11-05T05:19:51.763Z,110.80
2022-11-05T05:20:51.756Z,113.90
2022-11-05T05:21:51.735Z,113.10
2022-11-05T05:22:51.716Z,113.10
2022-11-05T05:23:51.812Z,114.60
2022-11-05T05:24:53.048Z,114.30
2022-11-05T05:25:51.738Z,121.60
2022-11-05T05:26:51.664Z,121.00
2022-11-05T05:27:51.656Z,115.20
2022-11-05T05:28:51.634Z,125.90
2022-11-05T05:29:51.624Z,117.60
2022-11-05T05:30:56.171Z,117.60
2022-11-05T05:31:52.596Z,137.00
2022-11-05T05:32:51.583Z,123.00
2022-11-05T05:33:51.574Z,125.70
2022-11-05T05:34:51.555Z,129.70
2022-11-05T05:35:51.566Z,127.40
2022-11-05T05:36:51.526Z,138.80
2022-11-05T05:37:51.516Z,131.50
2022-11-05T05:38:51.515Z,123.00
2022-11-05T05:39:51.497Z,140.20
2022-11-05T05:40:51.500Z,127.40
2022-11-05T05:41:51.466Z,134.80
2022-11-05T05:42:51.453Z,140.90
2022-11-05T05:43:51.555Z,122.60
2022-11-05T05:44:51.426Z,130.50
2022-11-05T05:45:51.436Z,130.70
2022-11-05T05:46:51.415Z,136.50
2022-11-05T05:47:51.395Z,140.30
2022-11-05T05:48:51.375Z,139.80
2022-11-05T05:49:51.376Z,129.10
2022-11-05T05:50:51.346Z,138.30
2022-11-05T05:51:51.340Z,126.20
2022-11-05T05:52:51.326Z,148.10
2022-11-05T05:53:51.306Z,133.80
2022-11-05T05:54:51.307Z,129.80
2022-11-05T05:55:51.297Z,134.10
2022-11-05T05:56:51.266Z,132.10
2022-11-05T05:57:51.255Z,136.60
2022-11-05T05:58:51.237Z,143.70
2022-11-05T05:59:51.226Z,144.80
2022-11-05T06:00:51.226Z,141.10
2022-11-05T06:01:51.283Z,149.50
2022-11-05T06:02:51.220Z,139.00
2022-11-05T06:03:51.168Z,135.70
2022-11-05T06:04:51.168Z,140.60
2022-11-05T06:05:51.167Z,131.80
2022-11-05T06:06:51.136Z,129.60
2022-11-05T06:07:51.125Z,137.10
2022-11-05T06:08:51.107Z,133.10
2022-11-05T06:09:51.098Z,143.10
2022-11-05T06:10:51.137Z,146.10
2022-11-05T06:11:51.077Z,144.40
2022-11-05T06:12:51.048Z,141.90
2022-11-05T06:13:51.047Z,121.10
2022-11-05T06:14:51.027Z,140.80
2022-11-05T06:15:51.043Z,131.00
2022-11-05T06:16:50.998Z,142.90
2022-11-05T06:17:50.988Z,136.30
2022-11-05T06:18:50.967Z,142.70
2022-11-05T06:19:50.966Z,131.40
2022-11-05T06:20:50.968Z,136.80
2022-11-05T06:21:50.940Z,133.40
2022-11-05T06:22:50.927Z,129.50
2022-11-05T06:23:50.909Z,134.70
2022-11-05T06:24:50.908Z,135.80
2022-11-05T06:25:50.889Z,135.40
2022-11-05T06:26:50.869Z,127.10
2022-11-05T06:27:50.863Z,143.80
2022-11-05T06:28:50.838Z,147.80
2022-11-05T06:29:50.849Z,153.20
2022-11-05T06:30:50.819Z,147.00
2022-11-05T06:31:50.808Z,133.10
2022-11-05T06:32:50.788Z,148.80
2022-11-05T06:33:50.781Z,146.20
2022-11-05T06:34:50.777Z,141.90
2022-11-05T06:35:50.753Z,132.50
2022-11-05T06:36:50.737Z,130.90
2022-11-05T06:37:50.728Z,133.40
2022-11-05T06:38:50.708Z,208.20
2022-11-05T06:39:50.726Z,143.00
2022-11-05T06:40:50.687Z,140.40
2022-11-05T06:42:16.587Z,141.40
2022-11-05T06:42:51.658Z,137.90
2022-11-05T06:43:50.650Z,138.70
2022-11-05T06:44:50.645Z,166.30
2022-11-05T06:45:50.619Z,131.80
2022-11-05T06:46:50.597Z,132.00
2022-11-05T06:47:50.596Z,131.10
2022-11-05T06:48:50.576Z,121.60
2022-11-05T06:49:50.580Z,120.80
2022-11-05T06:50:50.552Z,115.10
2022-11-05T06:51:50.539Z,130.70
2022-11-05T06:52:50.519Z,125.30
2022-11-05T06:53:50.516Z,118.60
2022-11-05T06:54:50.499Z,122.80
2022-11-05T06:55:50.507Z,107.70
2022-11-05T06:56:50.468Z,125.20
2022-11-05T06:57:50.459Z,119.20
2022-11-05T06:58:50.449Z,121.20
2022-11-05T06:59:50.429Z,117.00
2022-11-05T07:00:50.496Z,105.70
2022-11-05T07:01:50.474Z,102.60
2022-11-05T07:02:50.390Z,97.30
2022-11-05T07:03:50.380Z,108.60
2022-11-05T07:04:50.362Z,101.60
2022-11-05T07:05:50.412Z,106.90
2022-11-05T07:06:50.339Z,100.60
2022-11-05T07:07:50.327Z,99.50
2022-11-05T07:08:50.316Z,97.20
2022-11-05T07:09:50.302Z,94.80
2022-11-05T07:10:50.301Z,100.80
2022-11-05T07:11:50.326Z,91.80
2022-11-05T07:12:50.360Z,85.00
2022-11-05T07:13:50.250Z,88.20
2022-11-05T07:14:50.230Z,91.80
2022-11-05T07:15:50.240Z,93.50
2022-11-05T07:16:50.207Z,92.50
2022-11-05T07:17:50.211Z,88.70
2022-11-05T07:18:50.180Z,83.30
2022-11-05T07:19:50.173Z,84.00
2022-11-05T07:20:50.253Z,87.10
2022-11-05T07:21:50.200Z,80.90
2022-11-05T07:22:50.122Z,84.90
2022-11-05T07:23:50.120Z,84.40
2022-11-05T07:24:50.106Z,77.00
2022-11-05T07:25:50.103Z,75.00
2022-11-05T07:26:50.095Z,71.80
2022-11-05T07:27:50.070Z,77.40
2022-11-05T07:28:50.055Z,78.20
2022-11-05T07:29:50.044Z,83.30
2022-11-05T07:30:50.045Z,77.10
2022-11-05T07:31:50.014Z,84.40
2022-11-05T07:32:49.992Z,79.40
2022-11-05T07:33:49.983Z,68.10
2022-11-05T07:34:49.971Z,73.70
2022-11-05T07:35:50.002Z,90.10
2022-11-05T07:36:49.945Z,65.40
2022-11-05T07:37:49.942Z,78.20
2022-11-05T07:38:49.918Z,69.50
2022-11-05T07:39:49.903Z,69.00
2022-11-05T07:40:49.902Z,65.70
2022-11-05T07:41:49.880Z,64.70
2022-11-05T07:42:49.863Z,69.40
2022-11-05T07:43:49.851Z,67.10
2022-11-05T07:44:49.833Z,66.10
2022-11-05T07:45:49.847Z,70.60
2022-11-05T07:46:49.814Z,64.60
2022-11-05T07:47:49.802Z,63.30
2022-11-05T07:48:49.783Z,62.30
2022-11-05T07:49:49.773Z,63.10
2022-11-05T07:50:49.763Z,63.60
2022-11-05T07:51:49.757Z,57.40
2022-11-05T07:52:49.733Z,63.10
2022-11-05T07:53:49.723Z,61.30
2022-11-05T07:54:49.704Z,56.80
2022-11-05T07:55:49.712Z,57.20
2022-11-05T07:56:49.681Z,60.80
2022-11-05T07:57:49.673Z,63.50
2022-11-05T07:58:49.662Z,59.70
2022-11-05T07:59:49.646Z,52.80
2022-11-05T08:00:49.735Z,59.10
2022-11-05T08:01:49.741Z,54.60
2022-11-05T08:02:49.743Z,56.90
2022-11-05T08:03:49.613Z,55.90
2022-11-05T08:04:49.585Z,58.10
2022-11-05T08:05:49.604Z,52.50
2022-11-05T08:06:49.562Z,50.00
2022-11-05T08:07:49.535Z,52.70
2022-11-05T08:08:49.514Z,48.80
2022-11-05T08:09:49.515Z,47.20
2022-11-05T08:10:49.527Z,50.10
2022-11-05T08:11:52.851Z,49.20
2022-11-05T08:12:49.466Z,50.20
2022-11-05T08:13:49.495Z,49.60
2022-11-05T08:14:49.445Z,47.70
2022-11-05T08:15:49.447Z,48.00
2022-11-05T08:16:49.414Z,46.40
2022-11-05T08:17:49.406Z,50.60
2022-11-05T08:18:49.386Z,52.40
2022-11-05T08:19:49.376Z,51.50
2022-11-05T08:20:49.375Z,44.80
2022-11-05T08:21:49.383Z,50.20
2022-11-05T08:22:49.335Z,51.40
2022-11-05T08:23:49.334Z,43.00
2022-11-05T08:24:49.305Z,45.30
2022-11-05T08:25:49.325Z,43.20
2022-11-05T08:26:49.285Z,47.40
2022-11-05T08:27:49.276Z,45.30
2022-11-05T08:28:49.266Z,44.10
2022-11-05T08:29:49.247Z,42.60
2022-11-05T08:30:49.248Z,40.30
2022-11-05T08:31:49.217Z,43.30
2022-11-05T08:32:49.206Z,44.20
2022-11-05T08:33:49.196Z,43.20
2022-11-05T08:34:49.178Z,40.70
2022-11-05T08:35:49.179Z,39.90
2022-11-05T08:36:49.147Z,44.50
2022-11-05T08:37:49.146Z,41.70
2022-11-05T08:38:49.125Z,42.60
2022-11-05T08:39:49.128Z,40.80
2022-11-05T08:40:49.149Z,39.90
2022-11-05T08:41:49.089Z,40.00
2022-11-05T08:42:49.078Z,40.20
2022-11-05T08:43:49.086Z,36.30
2022-11-05T08:44:49.048Z,37.10
2022-11-05T08:45:49.047Z,42.00
2022-11-05T08:46:49.049Z,39.60
2022-11-05T08:47:49.008Z,41.50
2022-11-05T08:48:48.997Z,32.40
2022-11-05T08:49:48.997Z,33.10
2022-11-05T08:50:48.989Z,32.50
2022-11-05T08:51:48.947Z,32.90
2022-11-05T08:52:48.960Z,36.50
2022-11-05T08:53:48.959Z,34.60
2022-11-05T08:54:48.919Z,30.80
2022-11-05T08:55:48.913Z,37.30
2022-11-05T08:56:48.889Z,28.90
2022-11-05T08:57:48.868Z,30.10
2022-11-05T08:58:48.889Z,32.80
2022-11-05T08:59:48.847Z,36.90
2022-11-05T09:00:48.896Z,32.50
2022-11-05T09:01:48.946Z,32.30
2022-11-05T09:02:48.839Z,30.00
2022-11-05T09:03:48.788Z,29.50
2022-11-05T09:04:48.792Z,28.70
2022-11-05T09:05:48.779Z,33.30
2022-11-05T09:06:48.781Z,31.60
2022-11-05T09:07:48.741Z,31.10
2022-11-05T09:08:48.731Z,31.50
2022-11-05T09:09:48.709Z,31.00
2022-11-05T09:10:48.727Z,30.90
2022-11-05T09:12:11.058Z,29.00
2022-11-05T09:12:49.686Z,29.20
2022-11-05T09:13:48.657Z,23.70
2022-11-05T09:14:48.650Z,24.60
2022-11-05T09:15:48.689Z,27.30
2022-11-05T09:16:48.649Z,26.80
2022-11-05T09:17:48.599Z,27.40
2022-11-05T09:18:48.598Z,27.80
2022-11-05T09:19:48.602Z,25.60
2022-11-05T09:20:48.580Z,29.30
2022-11-05T09:21:48.550Z,28.80
2022-11-05T09:22:48.539Z,26.60
2022-11-05T09:23:48.529Z,31.30
2022-11-05T09:24:48.516Z,24.80
2022-11-05T09:25:48.552Z,27.20
2022-11-05T09:26:48.490Z,26.10
2022-11-05T09:27:48.512Z,27.20
2022-11-05T09:28:48.467Z,24.40
2022-11-05T09:29:48.451Z,20.50
2022-11-05T09:30:48.466Z,28.80
2022-11-05T09:31:48.446Z,29.10
2022-11-05T09:32:48.411Z,24.70
2022-11-05T09:33:48.394Z,25.00
2022-11-05T09:34:48.403Z,26.20
2022-11-05T09:35:48.516Z,32.00
2022-11-05T09:36:48.365Z,27.40
2022-11-05T09:37:48.340Z,24.40
2022-11-05T09:38:48.412Z,25.20
2022-11-05T09:39:48.311Z,24.10
2022-11-05T09:40:48.324Z,26.80
2022-11-05T09:41:48.972Z,28.00
2022-11-05T09:42:48.282Z,23.40
2022-11-05T09:43:48.276Z,27.30
2022-11-05T09:44:48.257Z,24.10
2022-11-05T09:45:48.253Z,23.00
2022-11-05T09:46:48.234Z,23.70
2022-11-05T09:47:48.229Z,21.80
2022-11-05T09:48:48.222Z,22.30
2022-11-05T09:49:48.185Z,23.60
2022-11-05T09:50:48.225Z,24.10
2022-11-05T09:51:48.153Z,20.50
2022-11-05T09:52:48.154Z,18.20
2022-11-05T09:53:48.132Z,21.80
2022-11-05T09:54:48.145Z,20.20
2022-11-05T09:55:48.103Z,23.60
2022-11-05T09:56:48.182Z,21.20
2022-11-05T09:57:48.084Z,24.30
2022-11-05T09:58:48.072Z,22.10
2022-11-05T09:59:48.054Z,20.20
2022-11-05T10:00:48.112Z,19.20
2022-11-05T10:01:48.147Z,26.80
2022-11-05T10:02:48.043Z,17.30
2022-11-05T10:03:48.007Z,21.30
2022-11-05T10:04:47.995Z,19.40
2022-11-05T10:05:48.060Z,21.80
2022-11-05T10:06:47.979Z,17.30
2022-11-05T10:07:47.986Z,18.10
2022-11-05T10:08:47.935Z,23.90
2022-11-05T10:09:47.934Z,16.80
2022-11-05T10:10:47.935Z,20.80
2022-11-05T10:11:47.894Z,17.80
2022-11-05T10:12:47.884Z,12.80
2022-11-05T10:13:47.884Z,17.70
2022-11-05T10:14:47.916Z,15.90
2022-11-05T10:15:47.856Z,15.00
2022-11-05T10:16:47.853Z,14.80
2022-11-05T10:17:47.817Z,12.10
2022-11-05T10:18:47.804Z,18.60
2022-11-05T10:19:47.787Z,14.10
2022-11-05T10:20:47.846Z,15.50
2022-11-05T10:22:49.807Z,18.10
2022-11-05T10:23:47.728Z,19.10
2022-11-05T10:24:47.739Z,18.40
2022-11-05T10:25:47.725Z,20.80
2022-11-05T10:26:47.721Z,18.20
2022-11-05T10:27:47.678Z,15.80
2022-11-05T10:28:47.668Z,13.90
2022-11-05T10:29:47.648Z,15.40
2022-11-05T10:30:47.676Z,15.80
2022-11-05T10:31:47.619Z,16.30
2022-11-05T10:32:47.617Z,21.40
2022-11-05T10:33:47.597Z,17.60
2022-11-05T10:34:47.587Z,11.70
2022-11-05T10:35:47.589Z,17.10
2022-11-05T10:36:47.562Z,16.10
2022-11-05T10:37:47.549Z,15.70
2022-11-05T10:38:47.536Z,19.40
2022-11-05T10:39:47.521Z,10.70
2022-11-05T10:40:47.529Z,15.50
2022-11-05T10:41:47.489Z,19.30
2022-11-05T10:42:47.481Z,17.60
2022-11-05T10:43:47.460Z,17.50
2022-11-05T10:44:47.471Z,16.80
2022-11-05T10:45:47.439Z,16.70
2022-11-05T10:46:47.430Z,14.80
2022-11-05T10:47:47.410Z,16.60
2022-11-05T10:48:47.401Z,16.60
2022-11-05T10:49:47.401Z,17.40
2022-11-05T10:50:47.370Z,13.10
2022-11-05T10:51:47.359Z,13.30
2022-11-05T10:52:47.362Z,15.30
2022-11-05T10:53:47.332Z,16.30
2022-11-05T10:54:47.333Z,13.10
2022-11-05T10:55:47.315Z,17.10
2022-11-05T10:56:47.293Z,13.30
2022-11-05T10:57:47.273Z,14.50
2022-11-05T10:58:47.264Z,13.00
2022-11-05T10:59:47.263Z,13.60
2022-11-05T11:00:47.293Z,16.60
2022-11-05T11:01:47.323Z,14.50
2022-11-05T11:02:47.224Z,14.90
2022-11-05T11:03:47.192Z,11.70
2022-11-05T11:04:47.205Z,13.00
2022-11-05T11:05:47.174Z,15.70
2022-11-05T11:06:47.165Z,17.50
2022-11-05T11:07:47.144Z,18.80
2022-11-05T11:08:47.142Z,15.80
2022-11-05T11:09:47.134Z,12.90
2022-11-05T11:10:47.113Z,14.80
2022-11-05T11:11:47.093Z,17.00
2022-11-05T11:12:47.086Z,15.90
2022-11-05T11:13:47.055Z,14.60
2022-11-05T11:14:47.074Z,14.90
2022-11-05T11:15:47.038Z,13.60
2022-11-05T11:16:47.027Z,14.00
2022-11-05T11:17:47.015Z,15.40
2022-11-05T11:18:47.004Z,14.30
2022-11-05T11:19:46.997Z,11.70
2022-11-05T11:20:46.976Z,15.90
2022-11-05T11:21:46.968Z,19.90
2022-11-05T11:22:46.946Z,134.10
2022-11-05T11:23:46.927Z,49.20
2022-11-05T11:24:46.939Z,13.20
2022-11-05T11:25:46.907Z,12.20
2022-11-05T11:26:46.898Z,11.90
2022-11-05T11:27:46.878Z,27.50
2022-11-05T11:28:46.868Z,12.90
2022-11-05T11:29:49.602Z,12.40
2022-11-05T11:30:46.843Z,14.40
2022-11-05T11:31:46.832Z,11.20
2022-11-05T11:32:46.819Z,15.30
2022-11-05T11:33:46.801Z,9.90
2022-11-05T11:34:46.808Z,9.40
2022-11-05T11:35:46.769Z,11.00
2022-11-05T11:36:46.760Z,9.30
2022-11-05T11:37:46.765Z,9.30
2022-11-05T11:38:46.732Z,9.40
2022-11-05T11:39:46.731Z,7.80
2022-11-05T11:40:46.721Z,10.20
2022-11-05T11:41:47.171Z,10.70
2022-11-05T11:42:46.682Z,8.80
2022-11-05T11:43:46.661Z,11.30
2022-11-05T11:44:46.671Z,10.40
2022-11-05T11:45:46.641Z,8.20
2022-11-05T11:46:46.631Z,6.90
2022-11-05T11:47:46.611Z,9.40
2022-11-05T11:48:46.603Z,9.90
2022-11-05T11:49:46.605Z,9.10
2022-11-05T11:50:46.582Z,10.80
2022-11-05T11:51:49.979Z,9.30
2022-11-05T11:52:46.654Z,9.20
2022-11-05T11:53:46.543Z,10.10
2022-11-05T11:54:46.548Z,7.20
2022-11-05T11:55:46.519Z,9.10
2022-11-05T11:56:46.493Z,11.20
2022-11-05T11:57:46.485Z,11.10
2022-11-05T11:58:46.472Z,11.40
2022-11-05T12:00:07.753Z,8.80
2022-11-05T12:00:47.445Z,8.70
2022-11-05T12:01:46.476Z,7.40
2022-11-05T12:02:46.445Z,8.50
2022-11-05T12:03:46.395Z,9.00
2022-11-05T12:04:46.424Z,9.40
2022-11-05T12:05:46.386Z,8.50
2022-11-05T12:07:55.077Z,10.30
2022-11-05T12:08:48.455Z,8.50
2022-11-05T12:09:47.320Z,10.40
2022-11-05T12:10:46.322Z,8.60
2022-11-05T12:11:46.294Z,11.30
2022-11-05T12:12:46.285Z,8.80
2022-11-05T12:13:46.266Z,8.00
2022-11-05T12:14:46.761Z,12.00
2022-11-05T12:15:46.255Z,9.90
2022-11-05T12:16:46.233Z,10.50
2022-11-05T12:17:46.226Z,10.00
2022-11-05T12:18:46.206Z,9.30
2022-11-05T12:19:46.184Z,10.50
2022-11-05T12:20:48.252Z,11.60
2022-11-05T12:21:53.099Z,10.00
2022-11-05T12:22:47.148Z,10.80
2022-11-05T12:23:46.136Z,9.60
2022-11-05T12:24:46.147Z,9.10
2022-11-05T12:25:46.119Z,8.10
2022-11-05T12:26:46.098Z,9.30
2022-11-05T12:27:46.085Z,12.50
2022-11-05T12:29:12.309Z,11.10
2022-11-05T12:29:47.066Z,13.20
2022-11-05T12:30:46.039Z,11.40
2022-11-05T12:31:46.027Z,9.20
2022-11-05T12:32:46.048Z,9.30
2022-11-05T12:33:45.998Z,13.60
2022-11-05T12:34:46.008Z,7.80
2022-11-05T12:35:48.216Z,9.00
2022-11-05T12:36:46.959Z,9.40
2022-11-05T12:37:45.948Z,9.90
2022-11-05T12:38:45.938Z,9.70
2022-11-05T12:39:45.951Z,9.60
2022-11-05T12:40:45.910Z,10.40
2022-11-05T12:41:45.900Z,12.80
2022-11-05T12:42:45.880Z,12.00
2022-11-05T12:43:45.861Z,10.10
2022-11-05T12:44:45.871Z,8.40
2022-11-05T12:45:45.850Z,11.70
2022-11-05T12:46:45.839Z,9.40
2022-11-05T12:47:45.811Z,11.60
2022-11-05T12:48:45.800Z,12.30
2022-11-05T12:49:45.800Z,9.50
2022-11-05T12:50:45.774Z,7.80
2022-11-05T12:51:45.751Z,8.80
2022-11-05T12:52:45.749Z,10.70